sensor_id;sensor_type;location;lat;lon;timestamp;temperature;humidity
18043;DHT22;9146;48.074;11.968;2024-01-15T00:00:16;-1.70;99.90
18043;DHT22;9146;48.074;11.968;2024-01-15T00:02:43;-1.60;99.90
18043;DHT22;9146;48.074;11.968;2024-01-15T00:05:10;-1.60;99.90
18043;DHT22;9146;48.074;11.968;2024-01-15T00:07:37;-1.60;99.90
18043;DHT22;9146;48.074;11.968;2024-01-15T00:10:04;-1.60;99.90
18043;DHT22;9146;48.074;11.968;2024-01-15T00:12:31;-1.60;99.90
18043;DHT22;9146;48.074;11.968;2024-01-15T00:14:58;-1.60;99.90
18043;DHT22;9146;48.074;11.968;2024-01-15T00:17:26;-1.60;99.90
18043;DHT22;9146;48.074;11.968;2024-01-15T00:19:53;-1.60;99.90
18043;DHT22;9146;48.074;11.968;2024-01-15T00:22:20;-1.60;99.90
18043;DHT22;9146;48.074;11.968;2024-01-15T00:24:47;-1.60;99.90
18043;DHT22;9146;48.074;11.968;2024-01-15T00:27:14;-1.70;99.90
18043;DHT22;9146;48.074;11.968;2024-01-15T00:29:41;-1.70;99.90
18043;DHT22;9146;48.074;11.968;2024-01-15T00:32:08;-1.70;99.90
18043;DHT22;9146;48.074;11.968;2024-01-15T00:34:36;-1.80;99.90
18043;DHT22;9146;48.074;11.968;2024-01-15T00:37:03;-1.80;99.90
18043;DHT22;9146;48.074;11.968;2024-01-15T00:39:32;-1.80;99.90
18043;DHT22;9146;48.074;11.968;2024-01-15T00:41:59;-1.70;99.90
18043;DHT22;9146;48.074;11.968;2024-01-15T00:44:26;-1.70;99.90
18043;DHT22;9146;48.074;11.968;2024-01-15T00:46:53;-1.70;99.90
18043;DHT22;9146;48.074;11.968;2024-01-15T00:49:19;-1.60;99.90
18043;DHT22;9146;48.074;11.968;2024-01-15T00:51:48;-1.60;99.90
18043;DHT22;9146;48.074;11.968;2024-01-15T00:54:15;-1.60;99.90
18043;DHT22;9146;48.074;11.968;2024-01-15T00:56:41;-1.60;99.90
18043;DHT22;9146;48.074;11.968;2024-01-15T00:59:08;-1.50;99.90
18043;DHT22;9146;48.074;11.968;2024-01-15T01:01:40;-1.50;99.90
18043;DHT22;9146;48.074;11.968;2024-01-15T01:04:08;-1.40;99.90
18043;DHT22;9146;48.074;11.968;2024-01-15T01:06:35;-1.40;99.90
18043;DHT22;9146;48.074;11.968;2024-01-15T01:09:03;-1.30;99.90
18043;DHT22;9146;48.074;11.968;2024-01-15T01:11:30;-1.20;99.90
18043;DHT22;9146;48.074;11.968;2024-01-15T01:13:57;-1.10;99.90
18043;DHT22;9146;48.074;11.968;2024-01-15T01:16:24;-1.00;99.90
18043;DHT22;9146;48.074;11.968;2024-01-15T01:18:51;-1.00;99.90
18043;DHT22;9146;48.074;11.968;2024-01-15T01:21:18;-1.00;99.90
18043;DHT22;9146;48.074;11.968;2024-01-15T01:23:45;-0.90;99.90
18043;DHT22;9146;48.074;11.968;2024-01-15T01:26:17;-0.80;99.90
18043;DHT22;9146;48.074;11.968;2024-01-15T01:28:44;-0.80;99.90
18043;DHT22;9146;48.074;11.968;2024-01-15T01:31:10;-0.80;99.90
18043;DHT22;9146;48.074;11.968;2024-01-15T01:33:38;-0.80;99.90
18043;DHT22;9146;48.074;11.968;2024-01-15T01:36:07;-0.90;99.90
18043;DHT22;9146;48.074;11.968;2024-01-15T01:38:35;-0.90;99.90
18043;DHT22;9146;48.074;11.968;2024-01-15T01:41:02;-1.00;99.90
18043;DHT22;9146;48.074;11.968;2024-01-15T01:43:30;-1.10;99.90
18043;DHT22;9146;48.074;11.968;2024-01-15T01:45:58;-1.20;99.90
18043;DHT22;9146;48.074;11.968;2024-01-15T01:48:26;-1.30;99.90
18043;DHT22;9146;48.074;11.968;2024-01-15T01:50:56;-1.40;99.90
18043;DHT22;9146;48.074;11.968;2024-01-15T01:53:24;-1.40;99.90
18043;DHT22;9146;48.074;11.968;2024-01-15T01:55:51;-1.50;99.90
18043;DHT22;9146;48.074;11.968;2024-01-15T01:58:19;-1.60;99.90
18043;DHT22;9146;48.074;11.968;2024-01-15T02:00:47;-1.70;99.90
18043;DHT22;9146;48.074;11.968;2024-01-15T02:03:15;-1.80;99.90
18043;DHT22;9146;48.074;11.968;2024-01-15T02:05:43;-1.80;99.90
18043;DHT22;9146;48.074;11.968;2024-01-15T02:08:11;-1.80;99.90
18043;DHT22;9146;48.074;11.968;2024-01-15T02:10:37;-1.90;99.90
18043;DHT22;9146;48.074;11.968;2024-01-15T02:13:04;-2.00;99.90
18043;DHT22;9146;48.074;11.968;2024-01-15T02:15:31;-2.00;99.90
18043;DHT22;9146;48.074;11.968;2024-01-15T02:18:02;-2.00;99.90
18043;DHT22;9146;48.074;11.968;2024-01-15T02:20:29;-2.10;99.90
18043;DHT22;9146;48.074;11.968;2024-01-15T02:23:06;-2.20;99.90
18043;DHT22;9146;48.074;11.968;2024-01-15T02:25:34;-2.20;99.90
18043;DHT22;9146;48.074;11.968;2024-01-15T02:28:01;-2.10;99.90
18043;DHT22;9146;48.074;11.968;2024-01-15T02:30:30;-2.10;99.90
18043;DHT22;9146;48.074;11.968;2024-01-15T02:32:58;-2.10;99.90
18043;DHT22;9146;48.074;11.968;2024-01-15T02:35:24;-2.00;99.90
18043;DHT22;9146;48.074;11.968;2024-01-15T02:37:51;-2.00;99.90
18043;DHT22;9146;48.074;11.968;2024-01-15T02:40:20;-1.90;99.90
18043;DHT22;9146;48.074;11.968;2024-01-15T02:42:46;-1.90;99.90
18043;DHT22;9146;48.074;11.968;2024-01-15T02:45:13;-1.80;99.90
18043;DHT22;9146;48.074;11.968;2024-01-15T02:47:40;-1.80;99.90
18043;DHT22;9146;48.074;11.968;2024-01-15T02:50:07;-1.80;99.90
18043;DHT22;9146;48.074;11.968;2024-01-15T02:52:34;-1.80;99.90
18043;DHT22;9146;48.074;11.968;2024-01-15T02:55:01;-1.80;99.90
18043;DHT22;9146;48.074;11.968;2024-01-15T02:57:29;-1.80;99.90
18043;DHT22;9146;48.074;11.968;2024-01-15T02:59:58;-1.80;99.90
18043;DHT22;9146;48.074;11.968;2024-01-15T03:02:25;-1.80;99.90
18043;DHT22;9146;48.074;11.968;2024-01-15T03:04:52;-1.90;99.90
18043;DHT22;9146;48.074;11.968;2024-01-15T03:07:19;-2.00;99.90
18043;DHT22;9146;48.074;11.968;2024-01-15T03:09:46;-2.00;99.90
18043;DHT22;9146;48.074;11.968;2024-01-15T03:12:13;-2.00;99.90
18043;DHT22;9146;48.074;11.968;2024-01-15T03:14:41;-2.10;99.90
18043;DHT22;9146;48.074;11.968;2024-01-15T03:17:08;-2.10;99.90
18043;DHT22;9146;48.074;11.968;2024-01-15T03:19:36;-2.10;99.90
18043;DHT22;9146;48.074;11.968;2024-01-15T03:22:03;-2.10;99.90
18043;DHT22;9146;48.074;11.968;2024-01-15T03:24:31;-2.00;99.90
18043;DHT22;9146;48.074;11.968;2024-01-15T03:26:58;-2.10;99.90
18043;DHT22;9146;48.074;11.968;2024-01-15T03:29:26;-2.10;99.90
18043;DHT22;9146;48.074;11.968;2024-01-15T03:31:54;-2.10;99.90
18043;DHT22;9146;48.074;11.968;2024-01-15T03:34:21;-2.00;99.90
18043;DHT22;9146;48.074;11.968;2024-01-15T03:36:48;-2.00;99.90
18043;DHT22;9146;48.074;11.968;2024-01-15T03:39:15;-2.00;99.90
18043;DHT22;9146;48.074;11.968;2024-01-15T03:41:42;-2.00;99.90
18043;DHT22;9146;48.074;11.968;2024-01-15T03:44:09;-2.00;99.90
18043;DHT22;9146;48.074;11.968;2024-01-15T03:46:35;-1.90;99.90
18043;DHT22;9146;48.074;11.968;2024-01-15T03:49:04;-1.90;99.90
18043;DHT22;9146;48.074;11.968;2024-01-15T03:51:32;-1.90;99.90
18043;DHT22;9146;48.074;11.968;2024-01-15T03:53:59;-1.90;99.90
18043;DHT22;9146;48.074;11.968;2024-01-15T03:56:26;-1.90;99.90
18043;DHT22;9146;48.074;11.968;2024-01-15T03:58:53;-1.90;99.90
18043;DHT22;9146;48.074;11.968;2024-01-15T04:01:20;-1.90;99.90
18043;DHT22;9146;48.074;11.968;2024-01-15T04:03:46;-1.90;99.90
18043;DHT22;9146;48.074;11.968;2024-01-15T04:06:15;-1.90;99.90
18043;DHT22;9146;48.074;11.968;2024-01-15T04:08:42;-1.90;99.90
18043;DHT22;9146;48.074;11.968;2024-01-15T04:11:08;-1.90;99.90
18043;DHT22;9146;48.074;11.968;2024-01-15T04:13:35;-1.90;99.90
18043;DHT22;9146;48.074;11.968;2024-01-15T04:16:03;-1.90;99.90
18043;DHT22;9146;48.074;11.968;2024-01-15T04:18:30;-1.90;99.90
18043;DHT22;9146;48.074;11.968;2024-01-15T04:20:57;-1.90;99.90
18043;DHT22;9146;48.074;11.968;2024-01-15T04:23:25;-1.90;99.90
18043;DHT22;9146;48.074;11.968;2024-01-15T04:25:52;-1.90;99.90
18043;DHT22;9146;48.074;11.968;2024-01-15T04:28:19;-2.00;99.90
18043;DHT22;9146;48.074;11.968;2024-01-15T04:30:46;-2.00;99.90
18043;DHT22;9146;48.074;11.968;2024-01-15T04:33:12;-2.00;99.90
18043;DHT22;9146;48.074;11.968;2024-01-15T04:35:39;-2.00;99.90
18043;DHT22;9146;48.074;11.968;2024-01-15T04:38:06;-2.10;99.90
18043;DHT22;9146;48.074;11.968;2024-01-15T04:40:35;-2.10;99.90
18043;DHT22;9146;48.074;11.968;2024-01-15T04:43:02;-2.10;99.90
18043;DHT22;9146;48.074;11.968;2024-01-15T04:45:29;-2.10;99.90
18043;DHT22;9146;48.074;11.968;2024-01-15T04:47:55;-2.10;99.90
18043;DHT22;9146;48.074;11.968;2024-01-15T04:50:23;-2.10;99.90
18043;DHT22;9146;48.074;11.968;2024-01-15T04:52:50;-2.10;99.90
18043;DHT22;9146;48.074;11.968;2024-01-15T04:55:17;-2.10;99.90
18043;DHT22;9146;48.074;11.968;2024-01-15T04:57:45;-2.10;99.90
18043;DHT22;9146;48.074;11.968;2024-01-15T05:00:13;-2.10;99.90
18043;DHT22;9146;48.074;11.968;2024-01-15T05:02:40;-2.20;99.90
18043;DHT22;9146;48.074;11.968;2024-01-15T05:05:07;-2.10;99.90
18043;DHT22;9146;48.074;11.968;2024-01-15T05:07:34;-2.10;99.90
18043;DHT22;9146;48.074;11.968;2024-01-15T05:10:00;-2.20;99.90
18043;DHT22;9146;48.074;11.968;2024-01-15T05:12:27;-2.20;99.90
18043;DHT22;9146;48.074;11.968;2024-01-15T05:14:56;-2.20;99.90
18043;DHT22;9146;48.074;11.968;2024-01-15T05:17:23;-2.20;99.90
18043;DHT22;9146;48.074;11.968;2024-01-15T05:19:51;-2.20;99.90
18043;DHT22;9146;48.074;11.968;2024-01-15T05:22:17;-2.20;99.90
18043;DHT22;9146;48.074;11.968;2024-01-15T05:24:44;-2.20;99.90
18043;DHT22;9146;48.074;11.968;2024-01-15T05:27:11;-2.30;99.90
18043;DHT22;9146;48.074;11.968;2024-01-15T05:29:38;-2.30;99.90
18043;DHT22;9146;48.074;11.968;2024-01-15T05:32:07;-2.30;99.90
18043;DHT22;9146;48.074;11.968;2024-01-15T05:34:33;-2.30;99.90
18043;DHT22;9146;48.074;11.968;2024-01-15T05:37:00;-2.30;99.90
18043;DHT22;9146;48.074;11.968;2024-01-15T05:39:27;-2.30;99.90
18043;DHT22;9146;48.074;11.968;2024-01-15T05:41:54;-2.30;99.90
18043;DHT22;9146;48.074;11.968;2024-01-15T05:44:21;-2.30;99.90
18043;DHT22;9146;48.074;11.968;2024-01-15T05:46:48;-2.30;99.90
18043;DHT22;9146;48.074;11.968;2024-01-15T05:49:16;-2.30;99.90
18043;DHT22;9146;48.074;11.968;2024-01-15T05:51:43;-2.30;99.90
18043;DHT22;9146;48.074;11.968;2024-01-15T05:54:10;-2.30;99.90
18043;DHT22;9146;48.074;11.968;2024-01-15T05:56:37;-2.30;99.90
18043;DHT22;9146;48.074;11.968;2024-01-15T05:59:03;-2.30;99.90
18043;DHT22;9146;48.074;11.968;2024-01-15T06:01:30;-2.30;99.90
18043;DHT22;9146;48.074;11.968;2024-01-15T06:03:57;-2.30;99.90
18043;DHT22;9146;48.074;11.968;2024-01-15T06:06:26;-2.30;99.90
18043;DHT22;9146;48.074;11.968;2024-01-15T06:08:53;-2.30;99.90
18043;DHT22;9146;48.074;11.968;2024-01-15T06:11:19;-2.30;99.90
18043;DHT22;9146;48.074;11.968;2024-01-15T06:13:46;-2.30;99.90
18043;DHT22;9146;48.074;11.968;2024-01-15T06:16:14;-2.30;99.90
18043;DHT22;9146;48.074;11.968;2024-01-15T06:18:42;-2.30;99.90
18043;DHT22;9146;48.074;11.968;2024-01-15T06:21:09;-2.30;99.90
18043;DHT22;9146;48.074;11.968;2024-01-15T06:23:40;-2.30;99.90
18043;DHT22;9146;48.074;11.968;2024-01-15T06:26:07;-2.30;99.90
18043;DHT22;9146;48.074;11.968;2024-01-15T06:28:34;-2.30;99.90
18043;DHT22;9146;48.074;11.968;2024-01-15T06:31:00;-2.30;99.90
18043;DHT22;9146;48.074;11.968;2024-01-15T06:33:27;-2.30;99.90
18043;DHT22;9146;48.074;11.968;2024-01-15T06:35:54;-2.30;99.90
18043;DHT22;9146;48.074;11.968;2024-01-15T06:38:22;-2.30;99.90
18043;DHT22;9146;48.074;11.968;2024-01-15T06:40:50;-2.30;99.90
18043;DHT22;9146;48.074;11.968;2024-01-15T06:43:17;-2.30;99.90
18043;DHT22;9146;48.074;11.968;2024-01-15T06:45:44;-2.30;99.90
18043;DHT22;9146;48.074;11.968;2024-01-15T06:48:11;-2.30;99.90
18043;DHT22;9146;48.074;11.968;2024-01-15T06:50:40;-2.30;99.90
18043;DHT22;9146;48.074;11.968;2024-01-15T06:53:07;-2.30;99.90
18043;DHT22;9146;48.074;11.968;2024-01-15T06:55:33;-2.30;99.90
18043;DHT22;9146;48.074;11.968;2024-01-15T06:58:02;-2.30;99.90
18043;DHT22;9146;48.074;11.968;2024-01-15T07:00:29;-2.30;99.90
18043;DHT22;9146;48.074;11.968;2024-01-15T07:02:56;-2.30;99.90
18043;DHT22;9146;48.074;11.968;2024-01-15T07:05:23;-2.30;99.90
18043;DHT22;9146;48.074;11.968;2024-01-15T07:07:50;-2.30;99.90
18043;DHT22;9146;48.074;11.968;2024-01-15T07:10:17;-2.30;99.90
18043;DHT22;9146;48.074;11.968;2024-01-15T07:12:44;-2.30;99.90
18043;DHT22;9146;48.074;11.968;2024-01-15T07:15:13;-2.30;99.90
18043;DHT22;9146;48.074;11.968;2024-01-15T07:17:41;-2.30;99.90
18043;DHT22;9146;48.074;11.968;2024-01-15T07:20:09;-2.30;99.90
18043;DHT22;9146;48.074;11.968;2024-01-15T07:22:36;-2.20;99.90
18043;DHT22;9146;48.074;11.968;2024-01-15T07:25:03;-2.20;99.90
18043;DHT22;9146;48.074;11.968;2024-01-15T07:27:32;-2.20;99.90
18043;DHT22;9146;48.074;11.968;2024-01-15T07:29:59;-2.20;99.90
18043;DHT22;9146;48.074;11.968;2024-01-15T07:32:27;-2.10;99.90
18043;DHT22;9146;48.074;11.968;2024-01-15T07:34:54;-2.10;99.90
18043;DHT22;9146;48.074;11.968;2024-01-15T07:37:21;-2.10;99.90
18043;DHT22;9146;48.074;11.968;2024-01-15T07:39:49;-2.10;99.90
18043;DHT22;9146;48.074;11.968;2024-01-15T07:42:16;-2.10;99.90
18043;DHT22;9146;48.074;11.968;2024-01-15T07:44:42;-2.10;99.90
18043;DHT22;9146;48.074;11.968;2024-01-15T07:47:10;-2.00;99.90
18043;DHT22;9146;48.074;11.968;2024-01-15T07:49:38;-2.00;99.90
18043;DHT22;9146;48.074;11.968;2024-01-15T07:52:05;-2.00;99.90
18043;DHT22;9146;48.074;11.968;2024-01-15T07:54:32;-2.00;99.90
18043;DHT22;9146;48.074;11.968;2024-01-15T07:57:00;-2.00;99.90
18043;DHT22;9146;48.074;11.968;2024-01-15T07:59:28;-1.90;99.90
18043;DHT22;9146;48.074;11.968;2024-01-15T08:01:55;-1.90;99.90
18043;DHT22;9146;48.074;11.968;2024-01-15T08:04:22;-1.80;99.90
18043;DHT22;9146;48.074;11.968;2024-01-15T08:06:51;-1.80;99.90
18043;DHT22;9146;48.074;11.968;2024-01-15T08:09:17;-1.80;99.90
18043;DHT22;9146;48.074;11.968;2024-01-15T08:11:44;-1.70;99.90
18043;DHT22;9146;48.074;11.968;2024-01-15T08:14:12;-1.70;99.90
18043;DHT22;9146;48.074;11.968;2024-01-15T08:16:39;-1.70;99.90
18043;DHT22;9146;48.074;11.968;2024-01-15T08:19:06;-1.60;99.90
18043;DHT22;9146;48.074;11.968;2024-01-15T08:21:33;-1.60;99.90
18043;DHT22;9146;48.074;11.968;2024-01-15T08:24:02;-1.50;99.90
18043;DHT22;9146;48.074;11.968;2024-01-15T08:26:29;-1.50;99.90
18043;DHT22;9146;48.074;11.968;2024-01-15T08:28:57;-1.40;99.90
18043;DHT22;9146;48.074;11.968;2024-01-15T08:31:26;-1.40;99.90
18043;DHT22;9146;48.074;11.968;2024-01-15T08:33:53;-1.40;99.90
18043;DHT22;9146;48.074;11.968;2024-01-15T08:36:21;-1.40;99.90
18043;DHT22;9146;48.074;11.968;2024-01-15T08:38:48;-1.30;99.90
18043;DHT22;9146;48.074;11.968;2024-01-15T08:41:16;-1.30;99.90
18043;DHT22;9146;48.074;11.968;2024-01-15T08:43:43;-1.30;99.90
18043;DHT22;9146;48.074;11.968;2024-01-15T08:46:11;-1.30;99.90
18043;DHT22;9146;48.074;11.968;2024-01-15T08:48:38;-1.30;99.90
18043;DHT22;9146;48.074;11.968;2024-01-15T08:51:05;-1.30;99.90
18043;DHT22;9146;48.074;11.968;2024-01-15T08:53:33;-1.30;99.90
18043;DHT22;9146;48.074;11.968;2024-01-15T08:56:00;-1.20;99.90
18043;DHT22;9146;48.074;11.968;2024-01-15T08:58:29;-1.20;99.90
18043;DHT22;9146;48.074;11.968;2024-01-15T09:00:56;-1.20;99.90
18043;DHT22;9146;48.074;11.968;2024-01-15T09:03:23;-1.20;99.90
18043;DHT22;9146;48.074;11.968;2024-01-15T09:05:51;-1.20;99.90
18043;DHT22;9146;48.074;11.968;2024-01-15T09:08:18;-1.20;99.90
18043;DHT22;9146;48.074;11.968;2024-01-15T09:10:45;-1.20;99.90
18043;DHT22;9146;48.074;11.968;2024-01-15T09:13:12;-1.20;99.90
18043;DHT22;9146;48.074;11.968;2024-01-15T09:15:41;-1.20;99.90
18043;DHT22;9146;48.074;11.968;2024-01-15T09:18:09;-1.10;99.90
18043;DHT22;9146;48.074;11.968;2024-01-15T09:20:36;-1.10;99.90
18043;DHT22;9146;48.074;11.968;2024-01-15T09:23:04;-1.10;99.90
18043;DHT22;9146;48.074;11.968;2024-01-15T09:25:31;-1.10;99.90
18043;DHT22;9146;48.074;11.968;2024-01-15T09:27:58;-1.00;99.90
18043;DHT22;9146;48.074;11.968;2024-01-15T09:30:24;-1.00;99.90
18043;DHT22;9146;48.074;11.968;2024-01-15T09:32:53;-1.00;99.90
18043;DHT22;9146;48.074;11.968;2024-01-15T09:35:20;-0.90;99.90
18043;DHT22;9146;48.074;11.968;2024-01-15T09:37:47;-0.90;99.90
18043;DHT22;9146;48.074;11.968;2024-01-15T09:40:14;-0.80;99.90
18043;DHT22;9146;48.074;11.968;2024-01-15T09:42:41;-0.70;99.90
18043;DHT22;9146;48.074;11.968;2024-01-15T09:45:08;-0.60;99.90
18043;DHT22;9146;48.074;11.968;2024-01-15T09:47:36;-0.60;99.90
18043;DHT22;9146;48.074;11.968;2024-01-15T09:50:06;-0.50;99.90
18043;DHT22;9146;48.074;11.968;2024-01-15T09:52:34;-0.50;99.90
18043;DHT22;9146;48.074;11.968;2024-01-15T09:55:02;-0.40;99.90
18043;DHT22;9146;48.074;11.968;2024-01-15T09:57:31;-0.40;99.90
18043;DHT22;9146;48.074;11.968;2024-01-15T09:59:59;-0.30;99.90
18043;DHT22;9146;48.074;11.968;2024-01-15T10:02:29;-0.30;99.90
18043;DHT22;9146;48.074;11.968;2024-01-15T10:04:57;-0.20;99.90
18043;DHT22;9146;48.074;11.968;2024-01-15T10:07:25;-0.10;99.90
18043;DHT22;9146;48.074;11.968;2024-01-15T10:09:53;-0.10;99.90
18043;DHT22;9146;48.074;11.968;2024-01-15T10:12:21;0.00;99.90
18043;DHT22;9146;48.074;11.968;2024-01-15T10:14:48;0.10;99.90
18043;DHT22;9146;48.074;11.968;2024-01-15T10:17:17;0.20;99.90
18043;DHT22;9146;48.074;11.968;2024-01-15T10:19:45;0.20;99.90
18043;DHT22;9146;48.074;11.968;2024-01-15T10:22:13;0.30;99.90
18043;DHT22;9146;48.074;11.968;2024-01-15T10:24:42;0.30;99.90
18043;DHT22;9146;48.074;11.968;2024-01-15T10:27:10;0.40;99.90
18043;DHT22;9146;48.074;11.968;2024-01-15T10:29:37;0.40;99.90
18043;DHT22;9146;48.074;11.968;2024-01-15T10:32:07;0.40;99.90
18043;DHT22;9146;48.074;11.968;2024-01-15T10:34:37;0.40;99.90
18043;DHT22;9146;48.074;11.968;2024-01-15T10:37:07;0.40;99.90
18043;DHT22;9146;48.074;11.968;2024-01-15T10:39:35;0.40;99.90
18043;DHT22;9146;48.074;11.968;2024-01-15T10:42:04;0.50;99.90
18043;DHT22;9146;48.074;11.968;2024-01-15T10:44:32;0.40;99.90
18043;DHT22;9146;48.074;11.968;2024-01-15T10:46:59;0.40;99.90
18043;DHT22;9146;48.074;11.968;2024-01-15T10:49:28;0.40;99.90
18043;DHT22;9146;48.074;11.968;2024-01-15T10:51:56;0.40;99.90
18043;DHT22;9146;48.074;11.968;2024-01-15T10:54:24;0.40;99.90
18043;DHT22;9146;48.074;11.968;2024-01-15T10:56:51;0.40;99.90
18043;DHT22;9146;48.074;11.968;2024-01-15T10:59:21;0.40;99.90
18043;DHT22;9146;48.074;11.968;2024-01-15T11:01:49;0.40;99.90
18043;DHT22;9146;48.074;11.968;2024-01-15T11:04:19;0.50;99.90
18043;DHT22;9146;48.074;11.968;2024-01-15T11:06:50;0.50;99.90
18043;DHT22;9146;48.074;11.968;2024-01-15T11:09:17;0.60;99.90
18043;DHT22;9146;48.074;11.968;2024-01-15T11:11:45;0.70;99.90
18043;DHT22;9146;48.074;11.968;2024-01-15T11:14:38;0.70;99.90
18043;DHT22;9146;48.074;11.968;2024-01-15T11:17:05;0.70;99.90
18043;DHT22;9146;48.074;11.968;2024-01-15T11:19:36;0.70;99.90
18043;DHT22;9146;48.074;11.968;2024-01-15T11:22:07;0.70;99.90
18043;DHT22;9146;48.074;11.968;2024-01-15T11:24:37;0.70;99.90
18043;DHT22;9146;48.074;11.968;2024-01-15T11:27:05;0.70;99.90
18043;DHT22;9146;48.074;11.968;2024-01-15T11:29:33;0.70;99.90
18043;DHT22;9146;48.074;11.968;2024-01-15T11:32:04;0.70;99.90
18043;DHT22;9146;48.074;11.968;2024-01-15T11:34:54;0.70;99.90
18043;DHT22;9146;48.074;11.968;2024-01-15T11:37:24;0.80;99.90
18043;DHT22;9146;48.074;11.968;2024-01-15T11:39:52;0.80;99.90
18043;DHT22;9146;48.074;11.968;2024-01-15T11:42:21;0.90;99.90
18043;DHT22;9146;48.074;11.968;2024-01-15T11:44:57;0.90;99.90
18043;DHT22;9146;48.074;11.968;2024-01-15T11:47:58;0.90;99.90
18043;DHT22;9146;48.074;11.968;2024-01-15T11:50:30;1.00;99.90
18043;DHT22;9146;48.074;11.968;2024-01-15T11:53:01;1.00;99.90
18043;DHT22;9146;48.074;11.968;2024-01-15T11:55:34;1.00;99.90
18043;DHT22;9146;48.074;11.968;2024-01-15T11:58:01;1.00;99.90
18043;DHT22;9146;48.074;11.968;2024-01-15T12:00:29;0.90;99.90
18043;DHT22;9146;48.074;11.968;2024-01-15T12:02:58;1.00;99.90
18043;DHT22;9146;48.074;11.968;2024-01-15T12:05:27;1.00;99.90
18043;DHT22;9146;48.074;11.968;2024-01-15T12:07:54;0.90;99.90
18043;DHT22;9146;48.074;11.968;2024-01-15T12:10:22;0.90;99.90
18043;DHT22;9146;48.074;11.968;2024-01-15T12:12:57;0.80;99.90
18043;DHT22;9146;48.074;11.968;2024-01-15T12:15:25;0.80;99.90
18043;DHT22;9146;48.074;11.968;2024-01-15T12:17:52;0.70;99.90
18043;DHT22;9146;48.074;11.968;2024-01-15T12:20:20;0.70;99.90
18043;DHT22;9146;48.074;11.968;2024-01-15T12:22:48;0.70;99.90
18043;DHT22;9146;48.074;11.968;2024-01-15T12:25:14;0.70;99.90
18043;DHT22;9146;48.074;11.968;2024-01-15T12:27:42;0.70;99.90
18043;DHT22;9146;48.074;11.968;2024-01-15T12:30:11;0.70;99.90
18043;DHT22;9146;48.074;11.968;2024-01-15T12:32:39;0.70;99.90
18043;DHT22;9146;48.074;11.968;2024-01-15T12:35:08;0.80;99.90
18043;DHT22;9146;48.074;11.968;2024-01-15T12:37:37;0.80;99.90
18043;DHT22;9146;48.074;11.968;2024-01-15T12:40:05;0.80;99.90
18043;DHT22;9146;48.074;11.968;2024-01-15T12:42:33;0.80;99.90
18043;DHT22;9146;48.074;11.968;2024-01-15T12:45:00;0.70;99.90
18043;DHT22;9146;48.074;11.968;2024-01-15T12:47:27;0.60;99.90
18043;DHT22;9146;48.074;11.968;2024-01-15T12:49:55;0.50;99.90
18043;DHT22;9146;48.074;11.968;2024-01-15T12:52:22;0.30;99.90
18043;DHT22;9146;48.074;11.968;2024-01-15T12:54:51;0.10;99.90
18043;DHT22;9146;48.074;11.968;2024-01-15T12:57:18;0.00;99.90
18043;DHT22;9146;48.074;11.968;2024-01-15T12:59:45;-0.10;99.90
18043;DHT22;9146;48.074;11.968;2024-01-15T13:02:13;-0.10;99.90
18043;DHT22;9146;48.074;11.968;2024-01-15T13:04:40;-0.10;99.90
18043;DHT22;9146;48.074;11.968;2024-01-15T13:07:07;0.00;99.90
18043;DHT22;9146;48.074;11.968;2024-01-15T13:09:34;0.10;99.90
18043;DHT22;9146;48.074;11.968;2024-01-15T13:12:03;0.10;99.90
18043;DHT22;9146;48.074;11.968;2024-01-15T13:14:31;0.20;99.90
18043;DHT22;9146;48.074;11.968;2024-01-15T13:16:58;0.20;99.90
18043;DHT22;9146;48.074;11.968;2024-01-15T13:19:25;0.20;99.90
18043;DHT22;9146;48.074;11.968;2024-01-15T13:21:53;0.20;99.90
18043;DHT22;9146;48.074;11.968;2024-01-15T13:24:21;0.20;99.90
18043;DHT22;9146;48.074;11.968;2024-01-15T13:26:48;0.10;99.90
18043;DHT22;9146;48.074;11.968;2024-01-15T13:29:16;0.20;99.90
18043;DHT22;9146;48.074;11.968;2024-01-15T13:31:43;0.20;99.90
18043;DHT22;9146;48.074;11.968;2024-01-15T13:34:12;0.30;99.90
18043;DHT22;9146;48.074;11.968;2024-01-15T13:36:40;0.40;99.90
18043;DHT22;9146;48.074;11.968;2024-01-15T13:39:06;0.50;99.90
18043;DHT22;9146;48.074;11.968;2024-01-15T13:41:35;0.60;99.90
18043;DHT22;9146;48.074;11.968;2024-01-15T13:44:02;0.60;99.90
18043;DHT22;9146;48.074;11.968;2024-01-15T13:46:30;0.70;99.90
18043;DHT22;9146;48.074;11.968;2024-01-15T13:48:59;0.70;99.90
18043;DHT22;9146;48.074;11.968;2024-01-15T13:51:27;0.70;99.90
18043;DHT22;9146;48.074;11.968;2024-01-15T13:53:55;0.80;99.90
18043;DHT22;9146;48.074;11.968;2024-01-15T13:56:22;0.80;99.90
18043;DHT22;9146;48.074;11.968;2024-01-15T13:58:49;0.80;99.90
18043;DHT22;9146;48.074;11.968;2024-01-15T14:01:17;0.80;99.90
18043;DHT22;9146;48.074;11.968;2024-01-15T14:03:45;0.70;99.90
18043;DHT22;9146;48.074;11.968;2024-01-15T14:06:12;0.70;99.90
18043;DHT22;9146;48.074;11.968;2024-01-15T14:08:39;0.60;99.90
18043;DHT22;9146;48.074;11.968;2024-01-15T14:11:06;0.60;99.90
18043;DHT22;9146;48.074;11.968;2024-01-15T14:13:33;0.50;99.90
18043;DHT22;9146;48.074;11.968;2024-01-15T14:16:00;0.40;99.90
18043;DHT22;9146;48.074;11.968;2024-01-15T14:18:27;0.40;99.90
18043;DHT22;9146;48.074;11.968;2024-01-15T14:20:56;0.40;99.90
18043;DHT22;9146;48.074;11.968;2024-01-15T14:23:23;0.30;99.90
18043;DHT22;9146;48.074;11.968;2024-01-15T14:25:50;0.30;99.90
18043;DHT22;9146;48.074;11.968;2024-01-15T14:28:17;0.30;99.90
18043;DHT22;9146;48.074;11.968;2024-01-15T14:30:44;0.30;99.90
18043;DHT22;9146;48.074;11.968;2024-01-15T14:33:11;0.20;99.90
18043;DHT22;9146;48.074;11.968;2024-01-15T14:35:38;0.20;99.90
18043;DHT22;9146;48.074;11.968;2024-01-15T14:38:06;0.20;99.90
18043;DHT22;9146;48.074;11.968;2024-01-15T14:40:34;0.20;99.90
18043;DHT22;9146;48.074;11.968;2024-01-15T14:43:01;0.20;99.90
18043;DHT22;9146;48.074;11.968;2024-01-15T14:45:28;0.20;99.90
18043;DHT22;9146;48.074;11.968;2024-01-15T14:47:55;0.10;99.90
18043;DHT22;9146;48.074;11.968;2024-01-15T14:50:24;0.10;99.90
18043;DHT22;9146;48.074;11.968;2024-01-15T14:52:50;0.10;99.90
18043;DHT22;9146;48.074;11.968;2024-01-15T14:55:19;0.10;99.90
18043;DHT22;9146;48.074;11.968;2024-01-15T14:57:46;0.00;99.90
18043;DHT22;9146;48.074;11.968;2024-01-15T15:00:13;0.00;99.90
18043;DHT22;9146;48.074;11.968;2024-01-15T15:02:42;0.00;99.90
18043;DHT22;9146;48.074;11.968;2024-01-15T15:05:09;0.00;99.90
18043;DHT22;9146;48.074;11.968;2024-01-15T15:07:38;-0.10;99.90
18043;DHT22;9146;48.074;11.968;2024-01-15T15:10:07;-0.10;99.90
18043;DHT22;9146;48.074;11.968;2024-01-15T15:12:36;-0.10;99.90
18043;DHT22;9146;48.074;11.968;2024-01-15T15:15:03;-0.20;99.90
18043;DHT22;9146;48.074;11.968;2024-01-15T15:17:30;-0.20;99.90
18043;DHT22;9146;48.074;11.968;2024-01-15T15:19:57;-0.20;99.90
18043;DHT22;9146;48.074;11.968;2024-01-15T15:22:24;-0.20;99.90
18043;DHT22;9146;48.074;11.968;2024-01-15T15:24:51;-0.20;99.90
18043;DHT22;9146;48.074;11.968;2024-01-15T15:27:18;-0.20;99.90
18043;DHT22;9146;48.074;11.968;2024-01-15T15:29:46;-0.30;99.90
18043;DHT22;9146;48.074;11.968;2024-01-15T15:32:16;-0.30;99.90
18043;DHT22;9146;48.074;11.968;2024-01-15T15:34:43;-0.30;99.90
18043;DHT22;9146;48.074;11.968;2024-01-15T15:37:09;-0.30;99.90